Погода Артур-Ногейрана неделю

Сан-Паулу, Бразилия

20 - 26 июля
  • 20июля
    Сегодня
    +10°
    +27°
    Ясно и безоблачно
    ВремяПогодаТемператураВлажностьДавлениеВетер, м/сВероятность осадков
    00:00Ясно и безоблачно+15°C79 %714 мм2.2 м/с5 %
    03:00Ясно и безоблачно+13°C87 %713 мм1.9 м/с5 %
    06:00Ясно и безоблачно+11°C91 %712 мм1.9 м/с5 %
    09:00Ясно и безоблачно+15°C72 %714 мм0.7 м/с5 %
    12:00Ясно и безоблачно+23°C46 %715 мм1.7 м/с5 %
    15:00Ясно и безоблачно+26°C31 %713 мм1.7 м/с5 %
    18:00Ясно и безоблачно+21°C54 %712 мм2.5 м/с5 %
    21:00Ясно и безоблачно+16°C65 %712 мм2.2 м/с5 %
  • 21июля
    Воскресенье
    +12°
    +27°
    Ясно и безоблачно
    ВремяПогодаТемператураВлажностьДавлениеВетер, м/сВероятность осадков
    00:00Ясно и безоблачно+15°C85 %713 мм2.2 м/с5 %
    03:00Ясно и безоблачно+13°C91 %712 мм1.6 м/с5 %
    06:00Ясно и безоблачно+11°C90 %711 мм0.7 м/с5 %
    09:00Ясно и безоблачно+16°C69 %714 мм0.7 м/с5 %
    12:00Ясно и безоблачно+24°C47 %714 мм0.4 м/с5 %
    15:00Ясно и безоблачно+27°C39 %712 мм1.3 м/с5 %
    18:00Ясно и безоблачно+23°C60 %712 мм2.3 м/с5 %
    21:00Ясно и безоблачно+18°C73 %712 мм2.3 м/с5 %
  • 22июля
    Понедельник
    +12°
    +28°
    Ясно и безоблачно
    ВремяПогодаТемператураВлажностьДавлениеВетер, м/сВероятность осадков
    00:00Ясно и безоблачно+17°C81 %713 мм2.1 м/с5 %
    03:00Ясно и безоблачно+15°C76 %712 мм2.3 м/с5 %
    06:00Ясно и безоблачно+13°C80 %712 мм2.0 м/с5 %
    09:00Ясно и безоблачно+17°C62 %714 мм0.3 м/с5 %
    12:00Ясно и безоблачно+25°C39 %714 мм1.0 м/с5 %
    15:00Ясно и безоблачно+27°C33 %713 мм1.5 м/с5 %
    18:00Ясно и безоблачно+24°C51 %713 мм2.3 м/с5 %
    21:00Ясно и безоблачно+17°C67 %713 мм2.3 м/с5 %
  • 23июля
    Вторник
    +14°
    +28°
    Практически безоблачно
    ВремяПогодаТемператураВлажностьДавлениеВетер, м/сВероятность осадков
    00:00Ясно и безоблачно+18°C77 %714 мм3.0 м/с5 %
    03:00Ясно и безоблачно+15°C84 %713 мм2.0 м/с5 %
    06:00Ясно и безоблачно+13°C84 %713 мм1.7 м/с5 %
    09:00Ясно и безоблачно+17°C61 %715 мм0.7 м/с5 %
    12:00Ясно и безоблачно+25°C43 %715 мм0.6 м/с5 %
    15:00Практически безоблачно+27°C36 %714 мм0.9 м/с5 %
    18:00Ясно и безоблачно+23°C55 %713 мм2.1 м/с5 %
    21:00Ясно и безоблачно+19°C63 %714 мм3.0 м/с5 %
Мы используем cookies
Соглашаюсь